NEWS
Subscribe to our RSS Feed

Catalunya CEV: All Sunday's race results



Fraser Rogers was the best of the CEV Moto3 Brits
Fraser Rogers was the best of the CEV Moto3 Brits

By
Image by www.SMARTFotos.co.uk

Catalunya Moto3 - conditions dry

1 41 FRANCESCO BAGNAIA ITA MONLAU COMPETICIÓN HONDA DUNLOP 15 28:34.112 - 148.9 13 1:53.500 149.9
2 23 ALEX MARQUEZ SPA MONLAU COMPETICIÓN HONDA DUNLOP 15 28:34.115 +0.003 148.9 12 1:53.722 149.6
3 22 LUCA AMATO GER ADAC STYLOBIKE FTR DUNLOP 15 28:34.186 +0.074 148.9 8 1:53.121 150.4
4 7 LORENZO BALDASSARRI ITA MONLAU COMPETICIÓN HONDA DUNLOP 15 28:34.610 +0.498 148.9 8 1:53.112 150.4
5 24 MARCOS RAMIREZ SPA ANDALUCIA CADIZ FTR DUNLOP 15 28:34.918 +0.806 148.8 4 1:53.551 149.9
6 58 JUANFRAN GUEVARA SPA WILD WOLF - BST FTR DUNLOP 15 28:35.053 +0.941 148.8 7 1:53.515 149.9
7 29 HYUGA WATANABE JPN PROJECT U 7C HARC LARRESPORT HONDA DUNLOP 15 28:35.079 +0.967 148.8 7 1:53.283 150.2
8 65 PHILIPP OTTL GER HP-MOTO-KALEX KALEX-KTM DUNLOP 15 28:41.550 +7.438 148.3 3 1:53.709 149.7
9 11 ALBERT ARENAS SPA MOTORRAD COMPETICION HONDA DUNLOP 15 28:41.616 +7.504 148.3 8 1:53.602 149.8
9 JORGE NAVARRO BRADOL PROJECT U 7C HARC LARRESPORT HONDA 10 SPA DUNLOP 15 28:51.128 +17.016 147.5 5 1:54.254 148.9
11 89 FRASER ROGERS GBR KRP/RACING STEPS FOUNDATION KRP DUNLOP 15 28:51.162 +17.050 147.4 4 1:54.099 149.1
12 97 XAVI VIERGE SPA TEAM RACC HONDA HONDA DUNLOP 15 28:51.481 +17.369 147.4 3 1:53.367 150.1
13 55 ALEJANDRO MEDINA SPA TEAM MEDINA HONDA DUNLOP 15 28:57.847 +23.735 146.9 3 1:54.827 148.2
14 28 JOSEP RODRIGUEZ SPA WILD WOLF FTR DUNLOP 15 29:00.096 +25.984 146.7 14 1:55.169 147.8
15 98 WAYNE RYAN GBR KRP/RACING STEPS FOUNDATION KRP DUNLOP 15 29:00.175 +26.063 146.7 14 1:54.450 148.7
16 95 JULES DANILO FRA JEG HONDA DUNLOP 15 29:00.234 +26.122 146.7 13 1:54.802 148.2
17 32 ANA CARRASCO SPA JHK T-SHIRT LAGLISSE HONDA DUNLOP 15 29:00.355 +26.243 146.7 15 1:54.656 148.4
18 40 JULIAN MIRALLES SPA MIR-BANKIA MIR RACING DUNLOP 15 29:01.335 +27.223 146.6 7 1:54.766 148.3
19 47 FERRAN CARDUS SPA MIR-BANKIA HONDA DUNLOP 15 29:10.562 +36.450 145.8 9 1:55.573 147.2
20 91 MORI SHUNYA JPN H43 TEAM NOBBY TALASUR HONDA DUNLOP 15 29:10.638 +36.526 145.8 9 1:55.954 146.8
21 19 GABRIEL RODRIGO SPA RBA HONDA DUNLOP 15 29:17.767 +43.655 145.2 6 1:55.424 147.4
22 44 FAUSTO JOSE GRANTON ARG TEAM RACC HONDA HONDA DUNLOP 15 29:22.505 +48.393 144.8 4 1:56.002 146.7
23 37 PEDRO RODRIGUEZ SPA SPEED MASTER TEAM HONDA DUNLOP 15 29:27.210 +53.098 144.4 4 1:55.962 146.7
24 4 GABRIEL RAMOS VEN VENEZUELA RACING TEAM HONDA DUNLOP 15 29:27.350 +53.238 144.4 6 1:56.171 146.5
25 18 SAMUEL RANKIN AUS H43 TEAM NOBBY TALASUR HONDA DUNLOP 15 29:31.936 +57.824 144.1 9 1:56.891 145.6
26 42 AITOR CREMADES SPA TEAM QUINTO HONDA DUNLOP 15 29:32.162 +58.050 144.0 10 1:56.559 146.0
27 26 DANIEL SAEZ SPA MOTORRAD COMPETICION HONDA DUNLOP 15 29:32.169 +58.057 144.0 14 1:56.768 145.7
28 10 AGUSTI LEVY SPA MR GRIFUL TEAM HONDA DUNLOP 15 29:32.573 +58.461 144.0 13 1:56.938 145.5
29 6 MARIA HERRERA SPA MONLAU COMPETICIÓN HONDA DUNLOP 15 29:44.071 +1:09.959 143.1 5 1:57.511 144.8
30 13 MARCEL ALVES POR ERTL JUNIOR TEAM HONDA DUNLOP 15 29:46.868 +1:12.756 142.9 5 1:57.626 144.7
31 77 PIERRE GINIEYS FRA PP PROMOTION HONDA DUNLOP 15 30:00.673 +1:26.561 141.8 6 1:58.714 143.3
32 71 EDGAR GALLIPOLI VEN VENEZUELA RACING TEAM HONDA DUNLOP 15 30:11.819 +1:37.707 140.9 6 1:58.497 143.6
33 66 EDUARDO J. ALAYON SPA JHK T-SHIRT LAGLISSE HONDA DUNLOP 15 30:20.858 +1:46.746 140.2 5 2:00.250 141.5
No clasificados:
68 CHRISTOPHE RAFAEL FRA TEAM RAFAEL HONDA DUNLOP 8 16:14.584 2 1:58.109 144.1
27 ALEXANDRE SIREROL SPA J.COSTA COMPETITION HONDA DUNLOP 6 29:59.033 4 2:00.433 141.3
17 JOHN MCPHEE GBR KRP/RACING STEPS FOUNDATION KRP DUNLOP 5 10:23.437 2 1:54.071 149.2
84 AMAURY JAKAB BEL PP PROMOTION HONDA DUNLOP 4 8:07.394 2 1:59.120 142.9
61 MONTSERRAT COSTA SPA J.COSTA COMPETITION HONDA DUNLOP 4 8:08.192 2 1:59.796 142.1
87 REMY CRISTOPHER GARDNER AUS TEAM GARDNER RACING MORIWAKI DUNLOP 1 2:00.861
16 ANDREA MIGNO ITA MOTORRAD COMPETICION HONDA DUNLOP 1 2:00.976

Catalunya Moto2 - conditions dry

1 18 JORDI TORRES SPA JHK T-SHIRT LAGLISSE MICHELIN 16 29:08.877 - 155.7 3 1:48.338 157.1
2 9 KENNY NOYES USA PL RACING MOTO2 MICHELIN 16 29:12.625 +3.748 155.4 4 1:48.848 156.3
3 40 ROMAN RAMOS SPA MOTORRAD COMPETICION ARIANE MICHELIN 16 29:12.674 +3.797 155.3 4 1:48.603 156.7
4 92 ALEJANDRO MARIÑELARENA SPA CNS MOTORSPORT MICHELIN 16 29:12.758 +3.881 155.3 12 1:48.744 156.5
5 55 HAFIZH SYAHRIN MAL PETRONAS RACELINE MALAYSIA FTR MICHELIN P 16 29:14.245 +5.368 155.2 7 1:49.071 156.0
6 44 STEVEN ODENDAAL RSA JHK T-SHIRT LAGLISSE MICHELIN P 16 29:28.112 +19.235 154.0 2 1:49.600 155.3
7 12 LUCAS MAHIAS FRA TFC RACING MICHELIN 16 29:43.762 +34.885 152.6 3 1:50.323 154.2
8 71 TOMOYOSHI KOYAMA JPN H43 TEAM NOBBY TALASUR GPD TECSTRA MICHELIN 16 29:44.040 +35.163 152.6 2 1:50.244 154.4
9 34 JAVIER EZEQUIEL ITURRIOZ ARG MR GRIFUL TEAM AJR MICHELIN P 16 29:44.203 +35.326 152.6 4 1:50.364 154.2
10 16 OSCAR CLIMENT SPA FEDERACING TEAM COMPETITION MIR RACING MICHELIN P 16 29:44.263 +35.386 152.6 14 1:50.548 153.9
11 41 FEDERICO D´ANNUNZIO ITA TSR GALICIA SCHOOL HARRIS MICHELIN P 16 29:50.183 +41.306 152.1 2 1:49.263 155.7
12 24 TOMMY AQUINO USA FOGI RACING FTR MICHELIN P 16 29:50.510 +41.633 152.1 12 1:50.858 153.5
13 95 NASSER AL MALKI QAT QMMF RACING TEAM MORIWAKI MICHELIN P 16 29:54.043 +45.166 151.8 11 1:51.036 153.3
14 15 FRANCISCO JAVIER ALVIZ SPA ANDALUCIA CADIZ AJR MICHELIN P 16 29:56.385 +47.508 151.6 8 1:50.876 153.5
15 10 JUAN RAMIREZ SPA TSR GALICIA SCHOOL KALEX MICHELIN P 16 29:56.736 +47.859 151.5 11 1:51.036 153.3
16 52 JUAN MANUEL SOLORZA ARG PL RACING MOTO2 MICHELIN P 16 30:03.743 +54.866 151.0 12 1:51.447 152.7
17 45 KRIS MCLAREN AUS TEAM BRP RACING MICHELIN P 16 30:07.429 +58.552 150.6 11 1:52.270 151.6
18 96 SAEED AL SULAITI QAT QMMF RACING TEAM MORIWAKI MICHELIN P 16 30:15.662 +1:06.785 150.0 2 1:52.276 151.6
19 99 CARLOS OSCAR CEJAS ARG WILMAX HARRIS RACING HARRIS MICHELIN P 16 30:19.417 +1:10.540 149.6 4 1:52.216 151.6
No clasificados:
76 LUIS MIGUEL MORA SPA H43 TEAM NOBBY TALASUR GPD TECSTRA MICHELIN P 9 30:45.919 2 1:51.752 152.3
54 RICARDO ESCALANTE MEX JHK T-SHIRT LAGLISSE MICHELIN P 6 11:04.084 5 1:49.601 155.3
64 SANTIAGO HERNANDEZ COL HALCOURIER MS AJR MICHELIN P 4 7:22.521 3 1:49.282 155.7
27 RUSSELL GOMEZ SPA HALCOURIER MS AJR MICHELIN 4 7:22.777 3 1:49.212 155.8
81 ANGEL MOLERO SPA X-BIKE AJR MICHELIN P 4 7:58.282 3 1:54.706 148.4
20 JESKO RAFFIN SWI AJRACING KALEX MICHELIN P 2 3:46.004 2 1:51.043 153.2

Catalunya Stock Extreme - conditions dry

1 31 CARMELO MORALES SPA JHK T-SHIRT LAGLISSE KAWASAKI MICHELIN 16 28:51.205 - 157.3 15 1:46.716 159.5
2 12 XAVI FORES SPA MOTORRAD COMPETICION BMW MOTORRAD MICHELIN 16 28:51.960 +0.755 157.2 5 1:46.975 159.1
3 34 JAVI DEL AMOR SPA TEAM SUZUKI SUZUKI DUNLOP 16 28:52.352 +1.147 157.2 2 1:46.905 159.2
4 23 ADRIAN BONASTRE SPA TEAM SUZUKI SUZUKI DUNLOP 16 29:00.553 +9.348 156.4 3 1:46.882 159.2
5 11 KYLE DAVID SMITH GBR WILD WOLF-BST KAWASAKI MICHELIN 16 29:06.428 +15.223 155.9 2 1:47.576 158.2
6 48 ALBERT SANTAMARIA SPA PROLIMIT RACING KAWASAKI MICHELIN 16 29:19.234 +28.029 154.8 4 1:47.912 157.7
7 46 VICTOR CASAS SPA MEDES EQUIPO DE CARRERAS KAWASAKI 16 29:25.521 +34.316 154.2 2 1:48.506 156.8
8 42 ALBERTO LOPEZ SPA MOTORRAD COMPETICION BMW MOTORRAD MICHELIN 16 29:25.592 +34.387 154.2 14 1:48.414 157.0
9 15 RAUL GARCIA SPA RCM COMPETICION KAWASAKI DUNLOP P 16 29:30.140 +38.935 153.8 4 1:48.060 157.5
10 73 ANTONIO ALARTE SPA BASOLÍ COMPETICIÓ KAWASAKI MICHELIN P 16 29:38.490 +47.285 153.1 13 1:49.301 155.7
11 14 ALEXANDRE JACQUES PRAUD FRA RACING SPIRIT TEAM KAWASAKI DUNLOP P 16 29:42.449 +51.244 152.8 8 1:49.491 155.4
12 65 JUAN ERIC GOMEZ FRA JEG BMW MOTORRAD MICHELIN 16 29:43.525 +52.320 152.7 8 1:49.353 155.6
13 21 JON PURROY SPA JP RACING BMW MOTORRAD DUNLOP P 16 29:43.646 +52.441 152.7 8 1:49.340 155.6
14 27 ALAN VILCHES SPA RPM TECNOMOTO KAWASAKI MICHELIN P 16 29:43.760 +52.555 152.6 4 1:49.045 156.1
15 55 MARCOS A. SOLORZA SPA KAWASAKI PALMETO PLR KAWASAKI MICHELIN P 16 29:44.037 +52.832 152.6 4 1:49.580 155.3
16 95 ERIK MORILLAS SPA MORILLAS TEAM KAWASAKI DUNLOP P 16 29:47.935 +56.730 152.3 13 1:49.770 155.0
17 61 FELIX RODRIGUEZ SPA SPORT CORUÑA STOCK1000 KAWASAKI DUNLOP P 16 29:48.511 +57.306 152.2 16 1:49.903 154.8
18 94 FRAN RODRIGUEZ SPA BASOLI COMPETICIÓ KAWASAKI MICHELIN P 16 29:56.656 +1:05.451 151.5 4 1:49.549 155.3
19 88 JUAN M. OLIAS SPA CIRCUITO DE NAVARRA BMW MOTORRAD DUNLOP P 16 29:59.787 +1:08.582 151.3 13 1:50.648 153.8
20 77 MARC MASSANA SPA MARVEL HOTELS RACING TEAM KAWASAKI MICHELIN P 16 30:00.440 +1:09.235 151.2 7 1:50.245 154.4
21 20 ROBERTO SABORIDO SPA MEDES EQUIPO DE CARRERAS KAWASAKI P 16 30:00.756 +1:09.551 151.2 7 1:50.979 153.3
22 22 SERGIO ORTEGA SPA ALBARACING MOTOR SPORT KAWASAKI DUNLOP P 16 30:03.087 +1:11.882 151.0 4 1:49.909 154.8
23 91 ALEIX AULESTIA SPA EGT RACING BMW MOTORRAD MICHELIN P 16 30:17.513 +1:26.308 149.8 4 1:51.074 153.2
24 70 GIANFRANCO ZUCCONI ITA JP RACING BMW MOTORRAD DUNLOP P 16 30:18.548 +1:27.343 149.7 4 1:51.490 152.6
25 69 ENRIQUE FERRER SPA CNS MOTORSPORT DUCATI 16 30:23.137 +1:31.932 149.3 6 1:48.916 156.2
26 9 ANDREI MARTSEVICH BLR TEAM MOTORRIKA BMW MOTORRAD MICHELIN P 16 30:28.547 +1:37.342 148.9 6 1:52.023 151.9
27 19 RAUL GOMEZ SPA EXTREMADURA COMPETICION VRYA HONDA DUNLOP P 15 29:00.556 1 Lap 146.7 7 1:53.601 149.8
28 45 MIGUEL ANGEL LOPEZ SPA SPORT CORUÑA STOCK1000 KAWASAKI DUNLOP P 15 29:01.166 1 Lap 146.6 5 1:53.951 149.3
29 44 JOAN RAMON RIBELLES SPA GASPAR COMPETICIO - TJT YAMAHA MICHELIN P 15 29:07.112 1 Lap 146.1 4 1:51.989 152.0
30 37 ANTONIO PASTOR SPA BRIEFING COMPETICIÓ HONDA MICHELIN P 15 29:11.938 1 Lap 145.7 7 1:54.331 148.8
31 25 JOSE MORALES SPA AM-MOTOS-LIFE-LOFT YAMAHA DUNLOP P 15 29:12.527 1 Lap 145.7 6 1:54.443 148.7
32 82 OLIVIER VINCENT LAMY FRA RACING SPIRIT TEAM HONDA MICHELIN P 15 29:15.500 1 Lap 145.4 2 1:54.475 148.7
33 66 PHILIPPE LE GALLO FRA JEG KAWASAKI DUNLOP P 15 29:32.641 1 Lap 144.0 4 1:55.784 147.0
No clasificados:
28 ALEJANDRO RODRIGUEZ SPA TEAM PASTRANA BMW MOTORRAD DUNLOP P 13 24:19.106 8 1:49.788 155.0
51 SANTIAGO BARRAGAN SPA KAWASAKI PALMETO PLR KAWASAKI MICHELIN 8 14:39.140 7 1:47.866 157.8
18 ALEJANDRO MARTINEZ SPA BRIEFING COMPETICIÓ HONDA DUNLOP P 7 13:19.681 4 1:50.824 153.6
53 ANTONIO J. ALARCOS SPA ALARCOS RACING BY GT ENGINEERING KAWASAKI P 7 29:51.215 4 1:47.137 158.8
39 JORGE ARROYO SPA TEAM PASTRANA RACING KAWASAKI DUNLOP P 4 7:35.916 2 1:49.871 154.9
57 FERRAN CASAS SPA MARVEL HOTELS RACING TEAM KAWASAKI MICHELIN 3 6:52.194 2 1:48.616 156.7
56 LAURENT FREDERIC COUBARD FRA JEG BMW MOTORRAD DUNLOP P 2 4:02.480 2 1:53.067 150.5

BSN Shop in association with GhostBikes.com and B&C Express